createdAt,value
2023-05-19T00:00:32.060Z,9.40
2023-05-19T00:06:37.491Z,9.00
2023-05-19T00:12:40.558Z,8.90
2023-05-19T00:18:44.093Z,9.30
2023-05-19T00:24:47.605Z,9.40
2023-05-19T00:30:57.785Z,9.20
2023-05-19T00:36:59.975Z,8.90
2023-05-19T00:43:03.994Z,8.80
2023-05-19T00:49:07.118Z,8.90
2023-05-19T00:55:12.024Z,8.80
2023-05-19T01:01:18.216Z,8.60
2023-05-19T01:15:30.250Z,8.50
2023-05-19T01:21:58.332Z,8.50
2023-05-19T01:28:42.652Z,8.50
2023-05-19T01:34:49.801Z,8.70
2023-05-19T01:40:55.569Z,8.80
2023-05-19T01:47:00.485Z,8.80
2023-05-19T01:53:03.927Z,8.80
2023-05-19T01:59:33.415Z,8.60
2023-05-19T02:06:11.544Z,8.30
2023-05-19T02:12:21.853Z,7.90
2023-05-19T02:18:25.801Z,7.80
2023-05-19T02:24:27.983Z,7.60
2023-05-19T02:30:32.899Z,7.60
2023-05-19T02:36:40.294Z,7.70
2023-05-19T02:42:43.966Z,7.80
2023-05-19T02:48:47.613Z,8.10
2023-05-19T02:54:50.276Z,8.10
2023-05-19T03:00:53.796Z,8.00
2023-05-19T03:06:57.265Z,7.90
2023-05-19T03:13:01.601Z,7.80
2023-05-19T03:19:03.981Z,8.00
2023-05-19T03:25:07.785Z,8.00
2023-05-19T03:31:11.534Z,8.30
2023-05-19T03:37:14.278Z,8.30
2023-05-19T03:43:19.713Z,8.30
2023-05-19T03:49:23.872Z,8.30
2023-05-19T03:55:32.158Z,8.20
2023-05-19T04:01:35.625Z,8.00
2023-05-19T04:07:38.463Z,8.00
2023-05-19T04:13:41.691Z,8.30
2023-05-19T04:19:44.328Z,9.30
2023-05-19T04:25:49.704Z,11.70
2023-05-19T04:31:53.561Z,13.40
2023-05-19T04:37:57.351Z,13.50
2023-05-19T04:44:00.303Z,12.50
2023-05-19T04:50:03.678Z,11.90
2023-05-19T04:56:07.913Z,11.60
2023-05-19T05:02:11.665Z,12.50
2023-05-19T05:08:15.618Z,12.80
2023-05-19T05:14:19.911Z,12.80
2023-05-19T05:20:23.815Z,12.80
2023-05-19T05:26:32.720Z,12.60
2023-05-19T05:32:37.624Z,12.40
2023-05-19T05:38:41.378Z,12.40
2023-05-19T05:44:43.937Z,12.30
2023-05-19T05:50:48.463Z,12.20
2023-05-19T05:56:51.757Z,12.00
2023-05-19T06:02:55.626Z,12.10
2023-05-19T06:08:59.264Z,11.90
2023-05-19T06:15:03.746Z,11.70
2023-05-19T06:21:07.669Z,11.10
2023-05-19T06:27:11.775Z,11.80
2023-05-19T06:33:15.512Z,11.90
2023-05-19T06:39:18.206Z,12.60
2023-05-19T06:45:23.578Z,13.70
2023-05-19T06:51:26.821Z,12.80
2023-05-19T06:57:30.649Z,13.00
2023-05-19T07:03:34.793Z,12.70
2023-05-19T07:09:38.362Z,13.00
2023-05-19T07:15:41.039Z,12.90
2023-05-19T07:21:45.804Z,12.80
2023-05-19T07:27:48.802Z,12.60
2023-05-19T07:33:54.511Z,12.70
2023-05-19T07:39:58.967Z,13.40
2023-05-19T07:46:02.594Z,13.70
2023-05-19T07:52:08.516Z,13.40
2023-05-19T07:58:10.793Z,13.60
2023-05-19T08:04:14.587Z,14.00
2023-05-19T08:10:18.390Z,14.20
2023-05-19T08:16:22.433Z,14.30
2023-05-19T08:22:24.764Z,14.50
2023-05-19T08:28:28.353Z,14.70
2023-05-19T08:34:31.023Z,14.80
2023-05-19T08:40:36.312Z,14.80
2023-05-19T08:46:40.528Z,14.80
2023-05-19T08:53:15.256Z,15.10
2023-05-19T08:59:24.545Z,15.20
2023-05-19T09:05:26.921Z,15.50
2023-05-19T09:11:30.679Z,15.20
2023-05-19T09:17:33.697Z,15.80
2023-05-19T09:23:37.198Z,15.60
2023-05-19T09:29:40.619Z,16.10
2023-05-19T09:35:48.742Z,16.10
2023-05-19T09:41:56.836Z,16.60
2023-05-19T09:48:05.525Z,16.70
2023-05-19T09:54:11.352Z,17.30
2023-05-19T10:00:15.356Z,17.70
2023-05-19T10:06:18.923Z,17.70
2023-05-19T10:12:22.735Z,16.80
2023-05-19T10:18:28.116Z,16.40
2023-05-19T10:24:31.918Z,16.60
2023-05-19T10:30:42.182Z,16.50
2023-05-19T10:37:10.151Z,16.00
2023-05-19T10:43:25.993Z,17.20
2023-05-19T10:49:29.184Z,17.00
2023-05-19T10:55:56.808Z,16.40
2023-05-19T11:02:08.319Z,16.00
2023-05-19T11:08:13.618Z,16.80
2023-05-19T11:14:22.086Z,16.80
2023-05-19T11:20:30.840Z,17.00
2023-05-19T11:26:44.169Z,16.60
2023-05-19T11:32:48.997Z,16.40
2023-05-19T11:38:52.596Z,16.60
2023-05-19T11:44:58.193Z,17.10
2023-05-19T11:51:03.498Z,16.50
2023-05-19T11:57:09.866Z,16.90
2023-05-19T12:03:15.188Z,17.60
2023-05-19T12:09:18.874Z,17.70
2023-05-19T12:15:23.370Z,18.00
2023-05-19T12:21:34.281Z,17.60
2023-05-19T12:27:39.033Z,17.70
2023-05-19T12:33:42.690Z,17.80
2023-05-19T12:39:47.043Z,18.20
2023-05-19T12:45:51.171Z,18.70
2023-05-19T12:52:07.148Z,18.20
2023-05-19T12:58:15.589Z,18.10
2023-05-19T13:04:18.999Z,18.20
2023-05-19T13:10:22.364Z,18.10
2023-05-19T13:16:24.756Z,18.00
2023-05-19T13:22:27.159Z,18.20
2023-05-19T13:28:30.533Z,18.50
2023-05-19T13:34:33.342Z,18.50
2023-05-19T13:40:37.210Z,18.70
2023-05-19T13:46:45.832Z,19.10
2023-05-19T13:52:49.155Z,18.90
2023-05-19T13:58:52.359Z,18.80
2023-05-19T14:04:58.398Z,17.60
2023-05-19T14:11:02.285Z,17.10
2023-05-19T14:17:06.014Z,17.00
2023-05-19T14:23:09.919Z,17.40
2023-05-19T14:29:13.606Z,17.70
2023-05-19T14:35:16.346Z,17.70
2023-05-19T14:41:20.019Z,18.10
2023-05-19T14:47:23.537Z,17.80
2023-05-19T14:53:28.165Z,17.80
2023-05-19T14:59:32.222Z,17.40
2023-05-19T15:05:36.252Z,17.40
2023-05-19T15:11:39.294Z,18.00
2023-05-19T15:17:41.981Z,17.80
2023-05-19T15:23:46.833Z,17.30
2023-05-19T15:29:49.393Z,17.20
2023-05-19T15:35:53.524Z,17.10
2023-05-19T15:41:57.086Z,17.90
2023-05-19T15:48:00.610Z,18.40
2023-05-19T15:54:03.007Z,18.40
2023-05-19T16:00:07.270Z,18.30
2023-05-19T16:06:09.628Z,18.30
2023-05-19T16:12:11.808Z,17.80
2023-05-19T16:18:14.049Z,17.40
2023-05-19T16:24:16.928Z,17.30
2023-05-19T16:30:24.545Z,17.70
2023-05-19T16:36:27.648Z,18.20
2023-05-19T16:42:33.330Z,18.10
2023-05-19T16:48:35.972Z,17.50
2023-05-19T16:54:39.214Z,17.10
2023-05-19T17:00:41.573Z,17.70
2023-05-19T17:06:46.907Z,18.00
2023-05-19T17:12:50.078Z,17.70
2023-05-19T17:18:53.271Z,17.50
2023-05-19T17:24:55.831Z,17.30
2023-05-19T17:30:59.490Z,17.10
2023-05-19T17:37:03.192Z,17.20
2023-05-19T17:43:07.118Z,17.20
2023-05-19T17:49:11.494Z,17.30
2023-05-19T17:55:15.454Z,17.90
2023-05-19T18:01:25.350Z,17.80
2023-05-19T18:07:29.577Z,17.50
2023-05-19T18:13:40.615Z,17.10
2023-05-19T18:19:43.688Z,17.00
2023-05-19T18:25:53.662Z,16.80
2023-05-19T18:31:59.455Z,16.70
2023-05-19T18:38:03.260Z,16.60
2023-05-19T18:44:09.357Z,16.50
2023-05-19T18:50:11.878Z,16.40
2023-05-19T18:56:17.509Z,16.30
2023-05-19T19:02:21.165Z,16.20
2023-05-19T19:08:25.809Z,16.10
2023-05-19T19:14:29.270Z,16.00
2023-05-19T19:20:31.571Z,15.90
2023-05-19T19:26:35.585Z,15.80
2023-05-19T19:32:39.120Z,15.80
2023-05-19T19:38:41.789Z,15.70
2023-05-19T19:44:45.435Z,15.60
2023-05-19T19:50:53.475Z,15.50
2023-05-19T19:56:56.683Z,15.50
2023-05-19T20:03:04.965Z,15.40
2023-05-19T20:09:09.007Z,15.40
2023-05-19T20:15:11.529Z,15.50
2023-05-19T20:21:15.010Z,15.60
2023-05-19T20:27:17.571Z,15.40
2023-05-19T20:33:20.274Z,15.30
2023-05-19T20:39:23.448Z,15.10
2023-05-19T20:45:27.237Z,15.00
2023-05-19T20:51:29.685Z,14.90
2023-05-19T20:57:33.605Z,14.80
2023-05-19T21:03:40.804Z,14.60
2023-05-19T21:09:47.504Z,14.50
2023-05-19T21:15:50.239Z,14.20
2023-05-19T21:21:53.159Z,14.10
2023-05-19T21:27:56.961Z,14.10
2023-05-19T21:34:00.721Z,14.30
2023-05-19T21:40:03.662Z,14.10
2023-05-19T21:46:06.935Z,13.90
2023-05-19T21:52:10.806Z,13.90
2023-05-19T21:58:14.287Z,14.00
2023-05-19T22:04:23.088Z,13.90
2023-05-19T22:10:26.382Z,13.80
2023-05-19T22:16:28.886Z,13.70
2023-05-19T22:22:32.406Z,13.90
2023-05-19T22:28:35.504Z,13.90
2023-05-19T22:34:39.606Z,13.90
2023-05-19T22:40:43.990Z,13.40
2023-05-19T22:46:46.731Z,13.40
2023-05-19T22:52:49.932Z,13.30
2023-05-19T22:58:53.619Z,13.40
2023-05-19T23:04:56.462Z,13.40
2023-05-19T23:11:03.286Z,13.30
2023-05-19T23:17:06.515Z,13.20
2023-05-19T23:23:09.943Z,13.20
2023-05-19T23:29:15.413Z,13.20
2023-05-19T23:35:19.655Z,13.10
2023-05-19T23:41:23.380Z,13.00
2023-05-19T23:47:26.000Z,12.90
2023-05-19T23:53:29.260Z,12.90
2023-05-19T23:59:31.663Z,12.70
